LCPH/PFO METAR and TAF weather

Enter ICAO airport designator
Station Type Date Time Source
LCPH METAR 2019/06/17 13:30 UTC NOAA

LCPH 171330Z 26011KT 9999 SCT016 28/21 Q1009


Station Type Date Time Source
LCPH Decoded METAR 2019/06/17 13:30 UTC NOAA

Paphos Airport, Cyprus (LCPH) 34-43N 032-29E 8M
Jun 17, 2019 - 09:30 AM EDT / 2019.06.17 1330 UTC
Wind: from the W (260 degrees) at 13 MPH (11 KT):0
Visibility: greater than 7 mile(s):0
Sky conditions: partly cloudy
Temperature: 82 F (28 C)
Dew Point: 69 F (21 C)
Relative Humidity: 65%
Pressure (altimeter): 29.80 in. Hg (1009 hPa)
ob: LCPH 171330Z 26011KT 9999 SCT016 28/21 Q1009
cycle: 13

Station Type Date Time Source
LCPH TAF 2019/06/17 12:31 UTC NOAA

TAF LCPH 171130Z 1712/1812 25012KT 9999 FEW015 SCT020 PROB30
TEMPO 1712/1715 FEW030CB
BECMG 1717/1720 35007KT
BECMG 1810/1812 24014KT

Example: see airport list